createdAt,value
2023-05-04T00:00:55.928Z,4.32
2023-05-04T00:03:43.139Z,4.31
2023-05-04T00:06:36.719Z,4.30
2023-05-04T00:10:05.633Z,4.31
2023-05-04T00:13:14.317Z,4.22
2023-05-04T00:16:04.187Z,4.17
2023-05-04T00:19:06.305Z,4.21
2023-05-04T00:21:48.269Z,4.22
2023-05-04T00:24:37.302Z,4.18
2023-05-04T00:27:42.320Z,4.16
2023-05-04T00:30:41.118Z,4.11
2023-05-04T00:33:33.681Z,4.07
2023-05-04T00:36:27.612Z,4.07
2023-05-04T00:39:08.821Z,4.08
2023-05-04T00:42:19.698Z,4.07
2023-05-04T00:45:10.863Z,4.04
2023-05-04T00:48:39.514Z,4.01
2023-05-04T00:52:10.557Z,3.92
2023-05-04T00:54:57.904Z,3.86
2023-05-04T00:58:29.766Z,3.83
2023-05-04T01:01:20.169Z,3.80
2023-05-04T01:04:51.789Z,3.72
2023-05-04T01:08:55.506Z,3.64
2023-05-04T01:12:29.579Z,3.52
2023-05-04T01:16:07.177Z,3.42
2023-05-04T01:19:11.518Z,3.41
2023-05-04T01:22:16.077Z,3.37
2023-05-04T01:25:34.805Z,3.35
2023-05-04T01:28:45.528Z,3.31
2023-05-04T01:31:57.027Z,3.30
2023-05-04T01:35:26.828Z,3.26
2023-05-04T01:38:32.931Z,3.18
2023-05-04T01:42:05.118Z,3.19
2023-05-04T01:45:37.118Z,3.19
2023-05-04T01:48:46.908Z,3.14
2023-05-04T01:51:43.146Z,3.04
2023-05-04T01:55:01.429Z,2.98
2023-05-04T01:57:56.935Z,2.92
2023-05-04T02:00:37.944Z,2.89
2023-05-04T02:03:49.217Z,2.94
2023-05-04T02:07:00.364Z,2.94
2023-05-04T02:09:36.286Z,2.88
2023-05-04T02:12:28.085Z,2.88
2023-05-04T02:15:28.485Z,2.87
2023-05-04T02:17:59.899Z,2.88
2023-05-04T02:21:29.015Z,2.91
2023-05-04T02:24:43.213Z,2.87
2023-05-04T02:27:25.409Z,2.74
2023-05-04T02:29:59.104Z,2.74
2023-05-04T02:32:27.620Z,2.80
2023-05-04T02:35:24.623Z,2.86
2023-05-04T02:38:07.704Z,2.80
2023-05-04T02:40:38.057Z,2.76
2023-05-04T02:43:17.474Z,2.76
2023-05-04T02:46:33.030Z,2.79
2023-05-04T02:49:14.231Z,2.75
2023-05-04T02:52:05.549Z,2.73
2023-05-04T02:54:38.464Z,2.68
2023-05-04T02:57:20.333Z,2.65
2023-05-04T03:00:31.335Z,2.70
2023-05-04T03:03:17.007Z,2.72
2023-05-04T03:06:03.116Z,2.72
2023-05-04T03:08:36.907Z,2.73
2023-05-04T03:11:18.657Z,2.76
2023-05-04T03:14:49.909Z,2.79
2023-05-04T03:17:58.650Z,2.74
2023-05-04T03:20:46.356Z,2.70
2023-05-04T03:23:37.636Z,2.70
2023-05-04T03:26:16.141Z,2.75
2023-05-04T03:28:57.458Z,2.83
2023-05-04T03:31:28.865Z,2.88
2023-05-04T03:34:23.321Z,2.90
2023-05-04T03:37:16.847Z,2.92
2023-05-04T03:40:35.600Z,3.02
2023-05-04T03:43:37.916Z,3.07
2023-05-04T03:46:50.534Z,3.11
2023-05-04T03:49:46.048Z,3.13
2023-05-04T03:53:26.611Z,3.18
2023-05-04T03:56:58.207Z,3.30
2023-05-04T03:59:39.087Z,3.42
2023-05-04T04:02:34.589Z,3.53
2023-05-04T04:05:37.514Z,3.66
2023-05-04T04:08:50.252Z,3.71
2023-05-04T04:12:33.251Z,3.75
2023-05-04T04:16:22.224Z,3.84
2023-05-04T04:19:52.380Z,3.97
2023-05-04T04:23:13.286Z,4.15
2023-05-04T04:25:55.446Z,4.30
2023-05-04T04:29:44.349Z,4.47
2023-05-04T04:33:06.084Z,4.51
2023-05-04T04:36:38.004Z,4.64
2023-05-04T04:39:29.063Z,4.69
2023-05-04T04:42:14.973Z,4.78
2023-05-04T04:45:20.880Z,4.96
2023-05-04T04:48:45.217Z,5.17
2023-05-04T04:52:04.059Z,5.40
2023-05-04T04:54:52.746Z,5.55
2023-05-04T04:57:54.371Z,5.72
2023-05-04T05:01:23.577Z,5.93
2023-05-04T05:04:25.963Z,6.04
2023-05-04T05:07:47.754Z,6.22
2023-05-04T05:11:09.739Z,6.36
2023-05-04T05:14:54.095Z,6.44
2023-05-04T05:18:16.108Z,6.72
2023-05-04T05:21:06.520Z,6.94
2023-05-04T05:24:55.620Z,7.14
2023-05-04T05:28:09.701Z,7.25
2023-05-04T05:31:50.098Z,7.32
2023-05-04T05:35:39.145Z,7.31
2023-05-04T05:38:57.650Z,7.40
2023-05-04T05:41:44.861Z,7.48
2023-05-04T05:44:23.145Z,7.39
2023-05-04T05:47:52.331Z,7.49
2023-05-04T05:51:24.005Z,7.76
2023-05-04T05:54:28.189Z,8.13
2023-05-04T05:57:56.097Z,8.37
2023-05-04T06:01:32.492Z,8.69
2023-05-04T06:05:10.076Z,9.02
2023-05-04T06:07:56.217Z,9.28
2023-05-04T06:11:05.018Z,9.48
2023-05-04T06:14:42.604Z,9.62
2023-05-04T06:17:26.595Z,9.74
2023-05-04T06:20:46.363Z,9.81
2023-05-04T06:23:58.388Z,10.08
2023-05-04T06:27:28.730Z,10.20
2023-05-04T06:30:53.070Z,10.32
2023-05-04T06:33:59.476Z,10.38
2023-05-04T06:37:15.548Z,10.55
2023-05-04T06:40:15.795Z,10.52
2023-05-04T06:43:56.159Z,10.73
2023-05-04T06:47:14.934Z,10.68
2023-05-04T06:50:44.202Z,10.71
2023-05-04T06:54:13.407Z,11.04
2023-05-04T06:57:09.081Z,11.41
2023-05-04T06:59:52.600Z,11.28
2023-05-04T07:02:52.842Z,11.54
2023-05-04T07:05:57.538Z,11.86
2023-05-04T07:09:21.226Z,12.10
2023-05-04T07:13:07.474Z,12.22
2023-05-04T07:16:37.772Z,14.03
2023-05-04T07:20:00.126Z,15.48
2023-05-04T07:23:42.829Z,16.75
2023-05-04T07:27:13.282Z,17.95
2023-05-04T07:30:42.885Z,19.04
2023-05-04T07:34:33.870Z,19.46
2023-05-04T07:38:33.030Z,19.51
2023-05-04T07:42:16.305Z,19.96
2023-05-04T07:46:05.331Z,21.08
2023-05-04T07:49:47.138Z,21.82
2023-05-04T07:53:35.244Z,22.20
2023-05-04T07:57:24.539Z,22.25
2023-05-04T08:01:13.884Z,22.52
2023-05-04T08:05:03.358Z,22.54
2023-05-04T08:08:53.082Z,22.52
2023-05-04T08:12:34.121Z,22.99
2023-05-04T08:15:58.686Z,23.48
2023-05-04T08:19:47.856Z,22.09
2023-05-04T08:23:12.470Z,21.88
2023-05-04T08:27:06.580Z,21.23
2023-05-04T08:30:48.504Z,19.97
2023-05-04T08:33:38.738Z,19.05
2023-05-04T08:36:35.711Z,18.60
2023-05-04T08:39:12.408Z,18.99
2023-05-04T08:42:46.022Z,18.78
2023-05-04T08:46:34.533Z,19.11
2023-05-04T08:50:14.854Z,19.65
2023-05-04T08:54:03.988Z,20.88
2023-05-04T08:57:52.980Z,21.87
2023-05-04T09:01:31.476Z,21.92
2023-05-04T09:05:12.893Z,22.61
2023-05-04T09:09:02.870Z,22.88
2023-05-04T09:12:28.450Z,22.99
2023-05-04T09:16:20.255Z,23.90
2023-05-04T09:20:21.170Z,22.40
2023-05-04T09:24:10.219Z,22.36
2023-05-04T09:28:11.312Z,22.08
2023-05-04T09:32:00.306Z,23.49
2023-05-04T09:35:49.407Z,24.46
2023-05-04T09:39:31.366Z,23.86
2023-05-04T09:43:20.692Z,23.72
2023-05-04T09:47:11.386Z,24.35
2023-05-04T09:50:59.356Z,22.80
2023-05-04T09:54:46.323Z,23.64
2023-05-04T09:58:35.774Z,24.38
2023-05-04T10:02:24.933Z,24.68
2023-05-04T10:06:19.188Z,25.68
2023-05-04T10:10:08.192Z,25.85
2023-05-04T10:13:50.370Z,26.05
2023-05-04T10:21:53.413Z,26.74
2023-05-04T10:25:45.519Z,26.75
2023-05-04T10:29:37.216Z,26.86
2023-05-04T10:33:27.078Z,26.85
2023-05-04T10:37:17.095Z,26.05
2023-05-04T10:41:18.364Z,26.38
2023-05-04T10:45:07.834Z,26.25
2023-05-04T10:48:49.248Z,26.98
2023-05-04T10:52:48.647Z,27.57
2023-05-04T10:56:43.343Z,26.12
2023-05-04T11:00:38.052Z,23.94
2023-05-04T11:04:27.240Z,24.24
2023-05-04T11:08:18.714Z,23.96
2023-05-04T11:12:04.103Z,23.71
2023-05-04T11:15:54.071Z,25.50
2023-05-04T11:19:48.728Z,27.13
2023-05-04T11:23:27.840Z,27.16
2023-05-04T11:27:25.837Z,27.90
2023-05-04T11:30:50.409Z,28.41
2023-05-04T11:34:19.365Z,28.50
2023-05-04T11:38:06.645Z,27.06
2023-05-04T11:41:40.757Z,24.68
2023-05-04T11:45:12.633Z,23.79
2023-05-04T11:48:51.565Z,23.19
2023-05-04T11:52:47.172Z,22.92
2023-05-04T11:56:10.128Z,23.81
2023-05-04T11:59:39.150Z,26.27
2023-05-04T12:03:21.435Z,27.52
2023-05-04T12:07:10.837Z,27.82
2023-05-04T12:10:29.745Z,27.47
2023-05-04T12:14:18.641Z,28.23
2023-05-04T12:18:07.804Z,27.54
2023-05-04T12:21:59.557Z,26.99
2023-05-04T12:25:50.987Z,26.68
2023-05-04T12:29:29.025Z,27.75
2023-05-04T12:33:18.083Z,27.77
2023-05-04T12:37:07.097Z,27.22
2023-05-04T12:40:55.635Z,27.42
2023-05-04T12:44:45.177Z,28.18
2023-05-04T12:48:29.133Z,27.81
2023-05-04T12:52:14.239Z,25.24
2023-05-04T12:55:44.371Z,25.14
2023-05-04T12:59:34.936Z,23.78
2023-05-04T13:03:02.628Z,23.23
2023-05-04T13:06:51.959Z,23.46
2023-05-04T13:10:13.501Z,25.17
2023-05-04T13:13:46.505Z,26.70
2023-05-04T13:17:28.855Z,27.27
2023-05-04T13:21:18.476Z,27.52
2023-05-04T13:25:01.440Z,27.62
2023-05-04T13:28:25.433Z,27.27
2023-05-04T13:32:15.004Z,27.23
2023-05-04T13:36:02.194Z,27.90
2023-05-04T13:39:11.352Z,27.64
2023-05-04T13:42:33.562Z,27.25
2023-05-04T13:46:25.220Z,26.59
2023-05-04T13:49:45.491Z,25.39
2023-05-04T13:53:11.320Z,26.45
2023-05-04T13:56:46.803Z,26.81
2023-05-04T14:00:29.205Z,27.20
2023-05-04T14:03:55.532Z,27.69
2023-05-04T14:07:11.493Z,27.81
2023-05-04T14:10:14.195Z,28.13
2023-05-04T14:13:43.312Z,28.44
2023-05-04T14:17:19.850Z,28.51
2023-05-04T14:20:20.586Z,28.51
2023-05-04T14:24:08.798Z,28.53
2023-05-04T14:27:49.131Z,28.22
2023-05-04T14:31:12.193Z,28.17
2023-05-04T14:34:43.290Z,28.04
2023-05-04T14:38:32.601Z,27.43
2023-05-04T14:42:22.149Z,27.46
2023-05-04T14:45:21.505Z,28.10
2023-05-04T14:48:48.748Z,28.26
2023-05-04T14:52:17.229Z,28.13
2023-05-04T14:55:42.318Z,28.05
2023-05-04T14:59:31.484Z,27.69
2023-05-04T15:03:20.705Z,28.14
2023-05-04T15:07:10.492Z,28.41
2023-05-04T15:10:59.994Z,28.14
2023-05-04T15:14:31.350Z,27.89
2023-05-04T15:18:20.867Z,27.81
2023-05-04T15:22:04.006Z,27.83
2023-05-04T15:25:46.023Z,27.96
2023-05-04T15:29:27.348Z,27.32
2023-05-04T15:33:10.548Z,27.33
2023-05-04T15:37:00.229Z,27.00
2023-05-04T15:40:43.538Z,26.86
2023-05-04T15:44:25.907Z,26.75
2023-05-04T15:47:55.229Z,26.91
2023-05-04T15:51:44.944Z,26.65
2023-05-04T15:55:28.052Z,26.68
2023-05-04T15:59:09.019Z,26.32
2023-05-04T16:02:51.753Z,26.30
2023-05-04T16:06:41.016Z,26.14
2023-05-04T16:09:30.172Z,25.95
2023-05-04T16:12:51.712Z,25.86
2023-05-04T16:16:40.785Z,25.79
2023-05-04T16:20:30.198Z,25.53
2023-05-04T16:24:12.526Z,25.16
2023-05-04T16:27:54.500Z,24.83
2023-05-04T16:31:36.305Z,24.45
2023-05-04T16:35:08.445Z,24.18
2023-05-04T16:38:42.668Z,23.97
2023-05-04T16:41:56.924Z,23.93
2023-05-04T16:45:46.645Z,23.91
2023-05-04T16:49:21.333Z,23.86
2023-05-04T16:52:05.503Z,23.59
2023-05-04T16:55:17.074Z,23.50
2023-05-04T16:58:31.121Z,23.31
2023-05-04T17:01:36.356Z,23.05
2023-05-04T17:04:55.066Z,22.92
2023-05-04T17:07:29.069Z,22.68
2023-05-04T17:11:00.671Z,22.64
2023-05-04T17:14:49.619Z,22.33
2023-05-04T17:18:38.626Z,22.14
2023-05-04T17:22:22.420Z,21.78
2023-05-04T17:26:04.607Z,21.63
2023-05-04T17:28:59.064Z,21.54
2023-05-04T17:32:15.360Z,21.48
2023-05-04T17:34:50.322Z,21.37
2023-05-04T17:38:02.027Z,21.08
2023-05-04T17:41:51.396Z,20.67
2023-05-04T17:45:41.368Z,20.52
2023-05-04T17:49:21.391Z,20.21
2023-05-04T17:53:04.322Z,20.06
2023-05-04T17:56:22.041Z,19.65
2023-05-04T17:59:39.406Z,19.28
2023-05-04T18:03:05.328Z,18.93
2023-05-04T18:06:53.674Z,18.69
2023-05-04T18:09:56.405Z,18.33
2023-05-04T18:13:22.862Z,18.03
2023-05-04T18:17:04.867Z,17.79
2023-05-04T18:20:31.937Z,17.61
2023-05-04T18:24:03.958Z,17.63
2023-05-04T18:27:37.553Z,17.42
2023-05-04T18:31:18.113Z,16.90
2023-05-04T18:34:06.370Z,16.67
2023-05-04T18:36:35.246Z,16.57
2023-05-04T18:39:28.026Z,16.49
2023-05-04T18:42:05.196Z,16.38
2023-05-04T18:45:48.139Z,16.33
2023-05-04T18:48:25.320Z,16.21
2023-05-04T18:51:47.343Z,16.12
2023-05-04T18:55:19.630Z,15.93
2023-05-04T18:58:27.720Z,15.74
2023-05-04T19:02:11.365Z,15.33
2023-05-04T19:05:17.668Z,14.97
2023-05-04T19:08:45.735Z,14.97
2023-05-04T19:12:14.214Z,14.92
2023-05-04T19:15:45.716Z,14.86
2023-05-04T19:18:57.635Z,14.53
2023-05-04T19:21:55.609Z,14.25
2023-05-04T19:24:38.859Z,14.21
2023-05-04T19:27:49.670Z,14.17
2023-05-04T19:31:31.516Z,14.14
2023-05-04T19:34:17.991Z,14.05
2023-05-04T19:37:41.579Z,13.96
2023-05-04T19:41:06.257Z,13.82
2023-05-04T19:44:07.979Z,13.74
2023-05-04T19:47:17.219Z,13.66
2023-05-04T19:50:25.736Z,13.48
2023-05-04T19:53:15.305Z,13.32
2023-05-04T19:56:23.108Z,13.34
2023-05-04T19:59:57.064Z,13.30
2023-05-04T20:03:16.025Z,13.19
2023-05-04T20:06:44.019Z,13.10
2023-05-04T20:10:33.525Z,13.04
2023-05-04T20:13:39.308Z,12.93
2023-05-04T20:17:04.153Z,12.86
2023-05-04T20:20:34.201Z,12.81
2023-05-04T20:24:09.033Z,12.79
2023-05-04T20:27:18.040Z,12.77
2023-05-04T20:30:28.188Z,12.81
2023-05-04T20:33:49.250Z,12.83
2023-05-04T20:36:19.737Z,12.84
2023-05-04T20:39:24.999Z,12.82
2023-05-04T20:42:58.211Z,12.85
2023-05-04T20:45:32.704Z,12.88
2023-05-04T20:48:59.492Z,12.90
2023-05-04T20:51:58.997Z,12.91
2023-05-04T20:54:48.661Z,12.90
2023-05-04T20:58:00.851Z,12.91
2023-05-04T21:01:02.642Z,12.92
2023-05-04T21:03:52.947Z,12.78
2023-05-04T21:07:12.260Z,12.72
2023-05-04T21:10:17.276Z,12.61
2023-05-04T21:13:49.067Z,12.59
2023-05-04T21:17:31.923Z,12.61
2023-05-04T21:21:03.961Z,12.68
2023-05-04T21:24:33.117Z,12.55
2023-05-04T21:28:08.096Z,12.56
2023-05-04T21:30:57.126Z,12.53
2023-05-04T21:34:29.633Z,12.44
2023-05-04T21:37:51.533Z,12.32
2023-05-04T21:41:27.219Z,12.30
2023-05-04T21:45:00.198Z,12.41
2023-05-04T21:48:31.730Z,12.51
2023-05-04T21:52:20.926Z,12.60
2023-05-04T21:55:23.850Z,12.59
2023-05-04T21:58:41.005Z,12.52
2023-05-04T22:02:22.591Z,12.49
2023-05-04T22:05:54.068Z,12.47
2023-05-04T22:09:43.190Z,12.50
2023-05-04T22:13:17.057Z,12.60
2023-05-04T22:17:05.244Z,12.55
2023-05-04T22:20:47.131Z,12.51
2023-05-04T22:23:35.614Z,12.37
2023-05-04T22:26:58.872Z,12.38
2023-05-04T22:30:08.950Z,12.42
2023-05-04T22:33:18.830Z,12.33
2023-05-04T22:36:39.644Z,12.37
2023-05-04T22:40:08.487Z,12.30
2023-05-04T22:43:25.418Z,12.30
2023-05-04T22:46:31.363Z,12.28
2023-05-04T22:50:00.531Z,12.32
2023-05-04T22:53:12.007Z,12.29
2023-05-04T22:56:33.120Z,12.30
2023-05-04T22:59:49.083Z,12.26
2023-05-04T23:03:12.419Z,12.30
2023-05-04T23:06:39.390Z,12.29
2023-05-04T23:10:14.467Z,12.28
2023-05-04T23:13:28.132Z,12.27
2023-05-04T23:17:16.998Z,12.24
2023-05-04T23:20:53.725Z,12.23
2023-05-04T23:24:35.215Z,12.19
2023-05-04T23:28:15.294Z,12.11
2023-05-04T23:31:46.653Z,12.08
2023-05-04T23:35:30.595Z,12.12
2023-05-04T23:38:40.984Z,12.09
2023-05-04T23:41:31.589Z,12.01
2023-05-04T23:45:10.288Z,11.93
2023-05-04T23:53:10.291Z,11.77
2023-05-04T23:57:12.879Z,11.75
